Aviation Digital Data Service (ADDS)

Output produced by METARs form (0326 UTC 19 August 2019)
found at http://www.aviationweather.gov/metar/data/
 
METAR text: ENGM 190320Z 21004KT 170V230 9999 SCT002 SCT009 11/10 Q1000
Conditions at: ENGM (OSLO/GARDERMOEN , NO) observed 0320 UTC 19 August 2019
Temperature: 11.0°C (52°F)
Dewpoint: 10.0°C (50°F) [RH = 94%]
Pressure (altimeter): 29.53 inches Hg (1000.0 mb)
Winds: from the SSW (210 degrees) at 5 MPH (4 knots; 2.1 m/s)
Visibility: 6 or more miles (10+ km)
Ceiling: at least 12,000 feet AGL
Clouds: scattered clouds at 200 feet AGL
scattered clouds at 900 feet AGL
Weather: no significant weather observed at this time

METAR text: ENGM 190250Z 18005KT 9999 BKN002 11/11 Q1000
Conditions at: ENGM (OSLO/GARDERMOEN , NO) observed 0250 UTC 19 August 2019
Temperature: 11.0°C (52°F)
Dewpoint: 11.0°C (52°F) [RH = 100%]
Pressure (altimeter): 29.53 inches Hg (1000.0 mb)
Winds: from the S (180 degrees) at 6 MPH (5 knots; 2.6 m/s)
Visibility: 6 or more miles (10+ km)
Ceiling: 200 feet AGL
Clouds: broken clouds at 200 feet AGL
Weather: no significant weather observed at this time

METAR text: ENGM 190220Z 19008KT 9000 OVC002 12/11 Q1000
Conditions at: ENGM (OSLO/GARDERMOEN , NO) observed 0220 UTC 19 August 2019
Temperature: 12.0°C (54°F)
Dewpoint: 11.0°C (52°F) [RH = 94%]
Pressure (altimeter): 29.53 inches Hg (1000.0 mb)
Winds: from the S (190 degrees) at 9 MPH (8 knots; 4.1 m/s)
Visibility: 6 miles ( 9 km)
Ceiling: 200 feet AGL
Clouds: overcast cloud deck at 200 feet AGL
Weather: no significant weather observed at this time

METAR text: ENGM 190150Z 20005KT 8000 BKN001 12/11 Q1000
Conditions at: ENGM (OSLO/GARDERMOEN , NO) observed 0150 UTC 19 August 2019
Temperature: 12.0°C (54°F)
Dewpoint: 11.0°C (52°F) [RH = 94%]
Pressure (altimeter): 29.53 inches Hg (1000.0 mb)
Winds: from the SSW (200 degrees) at 6 MPH (5 knots; 2.6 m/s)
Visibility: 5 miles ( 8 km)
Ceiling: 100 feet AGL
Clouds: broken clouds at 100 feet AGL
Weather: no significant weather observed at this time

METAR text: ENGM 190120Z 00000KT 9999 BKN002 12/11 Q0999
Conditions at: ENGM (OSLO/GARDERMOEN , NO) observed 0120 UTC 19 August 2019
Temperature: 12.0°C (54°F)
Dewpoint: 11.0°C (52°F) [RH = 94%]
Pressure (altimeter): 29.50 inches Hg (999.0 mb)
Winds: calm
Visibility: 6 or more miles (10+ km)
Ceiling: 200 feet AGL
Clouds: broken clouds at 200 feet AGL
Weather: no significant weather observed at this time

METAR text: ENGM 190050Z VRB02KT 9999 FEW002 BKN064 12/11 Q1000
Conditions at: ENGM (OSLO/GARDERMOEN , NO) observed 0050 UTC 19 August 2019
Temperature: 12.0°C (54°F)
Dewpoint: 11.0°C (52°F) [RH = 94%]
Pressure (altimeter): 29.53 inches Hg (1000.0 mb)
Winds: variable direction winds at 2 MPH (2 knots; 1.0 m/s)
Visibility: 6 or more miles (10+ km)
Ceiling: 6400 feet AGL
Clouds: few clouds at 200 feet AGL
broken clouds at 6400 feet AGL
Weather: no significant weather observed at this time

METAR text: ENGM 190020Z 15003KT 9999 -SHRA FEW004 BKN054 12/11 Q1000
Conditions at: ENGM (OSLO/GARDERMOEN , NO) observed 0020 UTC 19 August 2019
Temperature: 12.0°C (54°F)
Dewpoint: 11.0°C (52°F) [RH = 94%]
Pressure (altimeter): 29.53 inches Hg (1000.0 mb)
Winds: from the SSE (150 degrees) at 3 MPH (3 knots; 1.5 m/s)
Visibility: 6 or more miles (10+ km)
Ceiling: 5400 feet AGL
Clouds: few clouds at 400 feet AGL
broken clouds at 5400 feet AGL
Weather: -SHRA  (light rain showers)

METAR text: ENGM 182350Z 18003KT 150V230 9999 -SHRA FEW002 BKN057 12/11 Q1000
Conditions at: ENGM (OSLO/GARDERMOEN , NO) observed 2350 UTC 18 August 2019
Temperature: 12.0°C (54°F)
Dewpoint: 11.0°C (52°F) [RH = 94%]
Pressure (altimeter): 29.53 inches Hg (1000.0 mb)
Winds: from the S (180 degrees) at 3 MPH (3 knots; 1.5 m/s)
Visibility: 6 or more miles (10+ km)
Ceiling: 5700 feet AGL
Clouds: few clouds at 200 feet AGL
broken clouds at 5700 feet AGL
Weather: -SHRA  (light rain showers)

METAR text: ENGM 182320Z 14003KT 100V160 9999 -SHRA FEW036 BKN061 12/11 Q1000
Conditions at: ENGM (OSLO/GARDERMOEN , NO) observed 2320 UTC 18 August 2019
Temperature: 12.0°C (54°F)
Dewpoint: 11.0°C (52°F) [RH = 94%]
Pressure (altimeter): 29.53 inches Hg (1000.0 mb)
Winds: from the SE (140 degrees) at 3 MPH (3 knots; 1.5 m/s)
Visibility: 6 or more miles (10+ km)
Ceiling: 6100 feet AGL
Clouds: few clouds at 3600 feet AGL
broken clouds at 6100 feet AGL
Weather: -SHRA  (light rain showers)

METAR text: ENGM 182250Z 00000KT 9999 FEW019 SCT031 BKN065 12/11 Q1000
Conditions at: ENGM (OSLO/GARDERMOEN , NO) observed 2250 UTC 18 August 2019
Temperature: 12.0°C (54°F)
Dewpoint: 11.0°C (52°F) [RH = 94%]
Pressure (altimeter): 29.53 inches Hg (1000.0 mb)
Winds: calm
Visibility: 6 or more miles (10+ km)
Ceiling: 6500 feet AGL
Clouds: few clouds at 1900 feet AGL
scattered clouds at 3100 feet AGL
broken clouds at 6500 feet AGL
Weather: no significant weather observed at this time

METAR text: ENGM 182220Z VRB01KT 9999 -SHRA FEW016 BKN055 12/11 Q1000
Conditions at: ENGM (OSLO/GARDERMOEN , NO) observed 2220 UTC 18 August 2019
Temperature: 12.0°C (54°F)
Dewpoint: 11.0°C (52°F) [RH = 94%]
Pressure (altimeter): 29.53 inches Hg (1000.0 mb)
Winds: variable direction winds at 1 MPH (1 knots; 0.5 m/s)
Visibility: 6 or more miles (10+ km)
Ceiling: 5500 feet AGL
Clouds: few clouds at 1600 feet AGL
broken clouds at 5500 feet AGL
Weather: -SHRA  (light rain showers)

METAR text: ENGM 182150Z 00000KT 9999 -SHRA FEW016 SCT020 BKN076 13/11 Q1000
Conditions at: ENGM (OSLO/GARDERMOEN , NO) observed 2150 UTC 18 August 2019
Temperature: 13.0°C (55°F)
Dewpoint: 11.0°C (52°F) [RH = 88%]
Pressure (altimeter): 29.53 inches Hg (1000.0 mb)
Winds: calm
Visibility: 6 or more miles (10+ km)
Ceiling: 7600 feet AGL
Clouds: few clouds at 1600 feet AGL
scattered clouds at 2000 feet AGL
broken clouds at 7600 feet AGL
Weather: -SHRA  (light rain showers)

METAR text: ENGM 182120Z VRB02KT 9999 FEW017 BKN073 13/11 Q1000
Conditions at: ENGM (OSLO/GARDERMOEN , NO) observed 2120 UTC 18 August 2019
Temperature: 13.0°C (55°F)
Dewpoint: 11.0°C (52°F) [RH = 88%]
Pressure (altimeter): 29.53 inches Hg (1000.0 mb)
Winds: variable direction winds at 2 MPH (2 knots; 1.0 m/s)
Visibility: 6 or more miles (10+ km)
Ceiling: 7300 feet AGL
Clouds: few clouds at 1700 feet AGL
broken clouds at 7300 feet AGL
Weather: no significant weather observed at this time

METAR text: ENGM 182050Z VRB02KT 9999 -SHRA FEW020 SCT030 BKN052 12/11 Q1000 TEMPO SHRA
Conditions at: ENGM (OSLO/GARDERMOEN , NO) observed 2050 UTC 18 August 2019
Temperature: 12.0°C (54°F)
Dewpoint: 11.0°C (52°F) [RH = 94%]
Pressure (altimeter): 29.53 inches Hg (1000.0 mb)
Winds: variable direction winds at 2 MPH (2 knots; 1.0 m/s)
Visibility: 6 or more miles (10+ km)
Ceiling: 5200 feet AGL
Clouds: few clouds at 2000 feet AGL
scattered clouds at 3000 feet AGL
broken clouds at 5200 feet AGL
Weather: -SHRA  (light rain showers)

METAR text: ENGM 182020Z VRB01KT 9999 -SHRA SCT018 BKN037 13/11 Q1000 NOSIG
Conditions at: ENGM (OSLO/GARDERMOEN , NO) observed 2020 UTC 18 August 2019
Temperature: 13.0°C (55°F)
Dewpoint: 11.0°C (52°F) [RH = 88%]
Pressure (altimeter): 29.53 inches Hg (1000.0 mb)
Winds: variable direction winds at 1 MPH (1 knots; 0.5 m/s)
Visibility: 6 or more miles (10+ km)
Ceiling: 3700 feet AGL
Clouds: scattered clouds at 1800 feet AGL
broken clouds at 3700 feet AGL
Weather: -SHRA  (light rain showers)

METAR text: ENGM 181950Z 01003KT 340V070 9999 FEW022 SCT053 BKN082 13/11 Q1000 NOSIG
Conditions at: ENGM (OSLO/GARDERMOEN , NO) observed 1950 UTC 18 August 2019
Temperature: 13.0°C (55°F)
Dewpoint: 11.0°C (52°F) [RH = 88%]
Pressure (altimeter): 29.53 inches Hg (1000.0 mb)
Winds: from the N (10 degrees) at 3 MPH (3 knots; 1.5 m/s)
Visibility: 6 or more miles (10+ km)
Ceiling: 8200 feet AGL
Clouds: few clouds at 2200 feet AGL
scattered clouds at 5300 feet AGL
broken clouds at 8200 feet AGL
Weather: no significant weather observed at this time

METAR text: ENGM 181920Z 20005KT 9999 VCSH FEW029 BKN081 13/11 Q1000 NOSIG
Conditions at: ENGM (OSLO/GARDERMOEN , NO) observed 1920 UTC 18 August 2019
Temperature: 13.0°C (55°F)
Dewpoint: 11.0°C (52°F) [RH = 88%]
Pressure (altimeter): 29.53 inches Hg (1000.0 mb)
Winds: from the SSW (200 degrees) at 6 MPH (5 knots; 2.6 m/s)
Visibility: 6 or more miles (10+ km)
Ceiling: 8100 feet AGL
Clouds: few clouds at 2900 feet AGL
broken clouds at 8100 feet AGL
Weather: VCSH  (showers in vicinity)

METAR text: ENGM 181850Z VRB02KT 9999 -SHRA FEW022TCU SCT037 BKN070 13/10 Q1000 NOSIG
Conditions at: ENGM (OSLO/GARDERMOEN , NO) observed 1850 UTC 18 August 2019
Temperature: 13.0°C (55°F)
Dewpoint: 10.0°C (50°F) [RH = 82%]
Pressure (altimeter): 29.53 inches Hg (1000.0 mb)
Winds: variable direction winds at 2 MPH (2 knots; 1.0 m/s)
Visibility: 6 or more miles (10+ km)
Ceiling: 7000 feet AGL
Clouds: few clouds at 2200 feet AGL
scattered clouds at 3700 feet AGL
broken clouds at 7000 feet AGL
Weather: -SHRA  (light rain showers)

METAR text: ENGM 181820Z 22006KT 9999 -SHRA FEW022TCU SCT037 BKN053 13/11 Q1001 NOSIG
Conditions at: ENGM (OSLO/GARDERMOEN , NO) observed 1820 UTC 18 August 2019
Temperature: 13.0°C (55°F)
Dewpoint: 11.0°C (52°F) [RH = 88%]
Pressure (altimeter): 29.56 inches Hg (1001.0 mb)
Winds: from the SW (220 degrees) at 7 MPH (6 knots; 3.1 m/s)
Visibility: 6 or more miles (10+ km)
Ceiling: 5300 feet AGL
Clouds: few clouds at 2200 feet AGL
scattered clouds at 3700 feet AGL
broken clouds at 5300 feet AGL
Weather: -SHRA  (light rain showers)

METAR text: ENGM 181750Z 18008KT 9999 VCSH FEW020TCU SCT036 SCT070 15/10 Q1001 TEMPO SHRA
Conditions at: ENGM (OSLO/GARDERMOEN , NO) observed 1750 UTC 18 August 2019
Temperature: 15.0°C (59°F)
Dewpoint: 10.0°C (50°F) [RH = 72%]
Pressure (altimeter): 29.56 inches Hg (1001.0 mb)
Winds: from the S (180 degrees) at 9 MPH (8 knots; 4.1 m/s)
Visibility: 6 or more miles (10+ km)
Ceiling: at least 12,000 feet AGL
Clouds: few clouds at 2000 feet AGL
scattered clouds at 3600 feet AGL
scattered clouds at 7000 feet AGL
Weather: VCSH  (showers in vicinity)

METAR text: ENGM 181720Z 18012KT 9999 SCT036 BKN061 16/09 Q1001 TEMPO SHRA
Conditions at: ENGM (OSLO/GARDERMOEN , NO) observed 1720 UTC 18 August 2019
Temperature: 16.0°C (61°F)
Dewpoint: 9.0°C (48°F) [RH = 63%]
Pressure (altimeter): 29.56 inches Hg (1001.0 mb)
Winds: from the S (180 degrees) at 14 MPH (12 knots; 6.2 m/s)
Visibility: 6 or more miles (10+ km)
Ceiling: 6100 feet AGL
Clouds: scattered clouds at 3600 feet AGL
broken clouds at 6100 feet AGL
Weather: no significant weather observed at this time

METAR text: ENGM 181650Z 19011KT CAVOK 16/09 Q1001 NOSIG
Conditions at: ENGM (OSLO/GARDERMOEN , NO) observed 1650 UTC 18 August 2019
Temperature: 16.0°C (61°F)
Dewpoint: 9.0°C (48°F) [RH = 63%]
Pressure (altimeter): 29.56 inches Hg (1001.0 mb)
Winds: from the S (190 degrees) at 13 MPH (11 knots; 5.7 m/s)
Visibility: 6 or more miles (10+ km)
Ceiling: ceiling and visibility are OK
Clouds: unknown
Weather: no significant weather observed at this time

METAR text: ENGM 181620Z 16011KT CAVOK 16/08 Q1001 NOSIG
Conditions at: ENGM (OSLO/GARDERMOEN , NO) observed 1620 UTC 18 August 2019
Temperature: 16.0°C (61°F)
Dewpoint: 8.0°C (46°F) [RH = 59%]
Pressure (altimeter): 29.56 inches Hg (1001.0 mb)
Winds: from the SSE (160 degrees) at 13 MPH (11 knots; 5.7 m/s)
Visibility: 6 or more miles (10+ km)
Ceiling: ceiling and visibility are OK
Clouds: unknown
Weather: no significant weather observed at this time

METAR text: ENGM 181550Z 17009KT 140V200 9999 FEW032 BKN160 17/09 Q1001 NOSIG
Conditions at: ENGM (OSLO/GARDERMOEN , NO) observed 1550 UTC 18 August 2019
Temperature: 17.0°C (63°F)
Dewpoint: 9.0°C (48°F) [RH = 59%]
Pressure (altimeter): 29.56 inches Hg (1001.0 mb)
Winds: from the S (170 degrees) at 10 MPH (9 knots; 4.6 m/s)
Visibility: 6 or more miles (10+ km)
Ceiling: 16000 feet AGL
Clouds: few clouds at 3200 feet AGL
broken clouds at 16000 feet AGL
Weather: no significant weather observed at this time

METAR text: ENGM 181520Z 17009KT 140V200 CAVOK 17/09 Q1001 NOSIG
Conditions at: ENGM (OSLO/GARDERMOEN , NO) observed 1520 UTC 18 August 2019
Temperature: 17.0°C (63°F)
Dewpoint: 9.0°C (48°F) [RH = 59%]
Pressure (altimeter): 29.56 inches Hg (1001.0 mb)
Winds: from the S (170 degrees) at 10 MPH (9 knots; 4.6 m/s)
Visibility: 6 or more miles (10+ km)
Ceiling: ceiling and visibility are OK
Clouds: unknown
Weather: no significant weather observed at this time

METAR text: ENGM 181450Z 18009KT CAVOK 16/09 Q1002 NOSIG
Conditions at: ENGM (OSLO/GARDERMOEN , NO) observed 1450 UTC 18 August 2019
Temperature: 16.0°C (61°F)
Dewpoint: 9.0°C (48°F) [RH = 63%]
Pressure (altimeter): 29.59 inches Hg (1002.0 mb)
Winds: from the S (180 degrees) at 10 MPH (9 knots; 4.6 m/s)
Visibility: 6 or more miles (10+ km)
Ceiling: ceiling and visibility are OK
Clouds: unknown
Weather: no significant weather observed at this time

METAR text: ENGM 181420Z 18010KT CAVOK 16/09 Q1002 NOSIG
Conditions at: ENGM (OSLO/GARDERMOEN , NO) observed 1420 UTC 18 August 2019
Temperature: 16.0°C (61°F)
Dewpoint: 9.0°C (48°F) [RH = 63%]
Pressure (altimeter): 29.59 inches Hg (1002.0 mb)
Winds: from the S (180 degrees) at 12 MPH (10 knots; 5.1 m/s)
Visibility: 6 or more miles (10+ km)
Ceiling: ceiling and visibility are OK
Clouds: unknown
Weather: no significant weather observed at this time

METAR text: ENGM 181350Z 17014KT 9999 FEW045TCU BKN080 17/09 Q1002 NOSIG
Conditions at: ENGM (OSLO/GARDERMOEN , NO) observed 1350 UTC 18 August 2019
Temperature: 17.0°C (63°F)
Dewpoint: 9.0°C (48°F) [RH = 59%]
Pressure (altimeter): 29.59 inches Hg (1002.0 mb)
Winds: from the S (170 degrees) at 16 MPH (14 knots; 7.2 m/s)
Visibility: 6 or more miles (10+ km)
Ceiling: 8000 feet AGL
Clouds: few clouds at 4500 feet AGL
broken clouds at 8000 feet AGL
Weather: no significant weather observed at this time

METAR text: ENGM 181320Z 19012KT 160V220 9999 VCSH FEW045TCU BKN085 BKN160 18/07 Q1002 NOSIG
Conditions at: ENGM (OSLO/GARDERMOEN , NO) observed 1320 UTC 18 August 2019
Temperature: 18.0°C (64°F)
Dewpoint: 7.0°C (45°F) [RH = 49%]
Pressure (altimeter): 29.59 inches Hg (1002.0 mb)
Winds: from the S (190 degrees) at 14 MPH (12 knots; 6.2 m/s)
Visibility: 6 or more miles (10+ km)
Ceiling: 8500 feet AGL
Clouds: few clouds at 4500 feet AGL
broken clouds at 8500 feet AGL
broken clouds at 16000 feet AGL
Weather: VCSH  (showers in vicinity)

METAR text: ENGM 181250Z 18011KT 140V210 9999 FEW042 BKN190 18/08 Q1002 NOSIG
Conditions at: ENGM (OSLO/GARDERMOEN , NO) observed 1250 UTC 18 August 2019
Temperature: 18.0°C (64°F)
Dewpoint: 8.0°C (46°F) [RH = 52%]
Pressure (altimeter): 29.59 inches Hg (1002.0 mb)
Winds: from the S (180 degrees) at 13 MPH (11 knots; 5.7 m/s)
Visibility: 6 or more miles (10+ km)
Ceiling: 19000 feet AGL
Clouds: few clouds at 4200 feet AGL
broken clouds at 19000 feet AGL
Weather: no significant weather observed at this time

METAR text: ENGM 181220Z 18011KT 9999 SCT045 BKN200 18/09 Q1002 NOSIG
Conditions at: ENGM (OSLO/GARDERMOEN , NO) observed 1220 UTC 18 August 2019
Temperature: 18.0°C (64°F)
Dewpoint: 9.0°C (48°F) [RH = 56%]
Pressure (altimeter): 29.59 inches Hg (1002.0 mb)
Winds: from the S (180 degrees) at 13 MPH (11 knots; 5.7 m/s)
Visibility: 6 or more miles (10+ km)
Ceiling: 20000 feet AGL
Clouds: scattered clouds at 4500 feet AGL
broken clouds at 20000 feet AGL
Weather: no significant weather observed at this time

METAR text: ENGM 181150Z 17012KT 9999 SCT039 BKN200 17/08 Q1002 NOSIG
Conditions at: ENGM (OSLO/GARDERMOEN , NO) observed 1150 UTC 18 August 2019
Temperature: 17.0°C (63°F)
Dewpoint: 8.0°C (46°F) [RH = 55%]
Pressure (altimeter): 29.59 inches Hg (1002.0 mb)
Winds: from the S (170 degrees) at 14 MPH (12 knots; 6.2 m/s)
Visibility: 6 or more miles (10+ km)
Ceiling: 20000 feet AGL
Clouds: scattered clouds at 3900 feet AGL
broken clouds at 20000 feet AGL
Weather: no significant weather observed at this time

METAR text: ENGM 181120Z 20010KT 170V230 9999 FEW039 SCT044 BKN230 18/09 Q1002 NOSIG
Conditions at: ENGM (OSLO/GARDERMOEN , NO) observed 1120 UTC 18 August 2019
Temperature: 18.0°C (64°F)
Dewpoint: 9.0°C (48°F) [RH = 56%]
Pressure (altimeter): 29.59 inches Hg (1002.0 mb)
Winds: from the SSW (200 degrees) at 12 MPH (10 knots; 5.1 m/s)
Visibility: 6 or more miles (10+ km)
Ceiling: 23000 feet AGL
Clouds: few clouds at 3900 feet AGL
scattered clouds at 4400 feet AGL
broken clouds at 23000 feet AGL
Weather: no significant weather observed at this time

METAR text: ENGM 181050Z 19009KT 160V220 9999 SCT045 SCT170 17/09 Q1002 NOSIG
Conditions at: ENGM (OSLO/GARDERMOEN , NO) observed 1050 UTC 18 August 2019
Temperature: 17.0°C (63°F)
Dewpoint: 9.0°C (48°F) [RH = 59%]
Pressure (altimeter): 29.59 inches Hg (1002.0 mb)
Winds: from the S (190 degrees) at 10 MPH (9 knots; 4.6 m/s)
Visibility: 6 or more miles (10+ km)
Ceiling: at least 12,000 feet AGL
Clouds: scattered clouds at 4500 feet AGL
scattered clouds at 17000 feet AGL
Weather: no significant weather observed at this time

METAR text: ENGM 181020Z 20010KT 180V240 9999 FEW035 SCT190 17/09 Q1002 NOSIG
Conditions at: ENGM (OSLO/GARDERMOEN , NO) observed 1020 UTC 18 August 2019
Temperature: 17.0°C (63°F)
Dewpoint: 9.0°C (48°F) [RH = 59%]
Pressure (altimeter): 29.59 inches Hg (1002.0 mb)
Winds: from the SSW (200 degrees) at 12 MPH (10 knots; 5.1 m/s)
Visibility: 6 or more miles (10+ km)
Ceiling: at least 12,000 feet AGL
Clouds: few clouds at 3500 feet AGL
scattered clouds at 19000 feet AGL
Weather: no significant weather observed at this time

METAR text: ENGM 180950Z 20010KT 160V240 9999 FEW033 17/09 Q1002 NOSIG
Conditions at: ENGM (OSLO/GARDERMOEN , NO) observed 0950 UTC 18 August 2019
Temperature: 17.0°C (63°F)
Dewpoint: 9.0°C (48°F) [RH = 59%]
Pressure (altimeter): 29.59 inches Hg (1002.0 mb)
Winds: from the SSW (200 degrees) at 12 MPH (10 knots; 5.1 m/s)
Visibility: 6 or more miles (10+ km)
Ceiling: at least 12,000 feet AGL
Clouds: few clouds at 3300 feet AGL
Weather: no significant weather observed at this time

METAR text: ENGM 180920Z 19007KT 140V250 9999 FEW026 17/11 Q1002 NOSIG
Conditions at: ENGM (OSLO/GARDERMOEN , NO) observed 0920 UTC 18 August 2019
Temperature: 17.0°C (63°F)
Dewpoint: 11.0°C (52°F) [RH = 68%]
Pressure (altimeter): 29.59 inches Hg (1002.0 mb)
Winds: from the S (190 degrees) at 8 MPH (7 knots; 3.6 m/s)
Visibility: 6 or more miles (10+ km)
Ceiling: at least 12,000 feet AGL
Clouds: few clouds at 2600 feet AGL
Weather: no significant weather observed at this time

METAR text: ENGM 180850Z 19009KT 160V230 9999 FEW018 16/10 Q1002 NOSIG
Conditions at: ENGM (OSLO/GARDERMOEN , NO) observed 0850 UTC 18 August 2019
Temperature: 16.0°C (61°F)
Dewpoint: 10.0°C (50°F) [RH = 68%]
Pressure (altimeter): 29.59 inches Hg (1002.0 mb)
Winds: from the S (190 degrees) at 10 MPH (9 knots; 4.6 m/s)
Visibility: 6 or more miles (10+ km)
Ceiling: at least 12,000 feet AGL
Clouds: few clouds at 1800 feet AGL
Weather: no significant weather observed at this time

METAR text: ENGM 180820Z 19009KT 150V210 9999 FEW018 15/11 Q1002 NOSIG
Conditions at: ENGM (OSLO/GARDERMOEN , NO) observed 0820 UTC 18 August 2019
Temperature: 15.0°C (59°F)
Dewpoint: 11.0°C (52°F) [RH = 77%]
Pressure (altimeter): 29.59 inches Hg (1002.0 mb)
Winds: from the S (190 degrees) at 10 MPH (9 knots; 4.6 m/s)
Visibility: 6 or more miles (10+ km)
Ceiling: at least 12,000 feet AGL
Clouds: few clouds at 1800 feet AGL
Weather: no significant weather observed at this time

METAR text: ENGM 180750Z 19009KT 9999 SCT015 14/11 Q1002 NOSIG
Conditions at: ENGM (OSLO/GARDERMOEN , NO) observed 0750 UTC 18 August 2019
Temperature: 14.0°C (57°F)
Dewpoint: 11.0°C (52°F) [RH = 82%]
Pressure (altimeter): 29.59 inches Hg (1002.0 mb)
Winds: from the S (190 degrees) at 10 MPH (9 knots; 4.6 m/s)
Visibility: 6 or more miles (10+ km)
Ceiling: at least 12,000 feet AGL
Clouds: scattered clouds at 1500 feet AGL
Weather: no significant weather observed at this time

METAR text: ENGM 180720Z 18009KT 9999 SCT013 14/11 Q1001 NOSIG
Conditions at: ENGM (OSLO/GARDERMOEN , NO) observed 0720 UTC 18 August 2019
Temperature: 14.0°C (57°F)
Dewpoint: 11.0°C (52°F) [RH = 82%]
Pressure (altimeter): 29.56 inches Hg (1001.0 mb)
Winds: from the S (180 degrees) at 10 MPH (9 knots; 4.6 m/s)
Visibility: 6 or more miles (10+ km)
Ceiling: at least 12,000 feet AGL
Clouds: scattered clouds at 1300 feet AGL
Weather: no significant weather observed at this time

METAR text: ENGM 180650Z 20008KT 9999 SCT011 14/11 Q1001 NOSIG
Conditions at: ENGM (OSLO/GARDERMOEN , NO) observed 0650 UTC 18 August 2019
Temperature: 14.0°C (57°F)
Dewpoint: 11.0°C (52°F) [RH = 82%]
Pressure (altimeter): 29.56 inches Hg (1001.0 mb)
Winds: from the SSW (200 degrees) at 9 MPH (8 knots; 4.1 m/s)
Visibility: 6 or more miles (10+ km)
Ceiling: at least 12,000 feet AGL
Clouds: scattered clouds at 1100 feet AGL
Weather: no significant weather observed at this time

METAR text: ENGM 180620Z 18007KT 150V210 9999 SCT010 13/11 Q1001 NOSIG
Conditions at: ENGM (OSLO/GARDERMOEN , NO) observed 0620 UTC 18 August 2019
Temperature: 13.0°C (55°F)
Dewpoint: 11.0°C (52°F) [RH = 88%]
Pressure (altimeter): 29.56 inches Hg (1001.0 mb)
Winds: from the S (180 degrees) at 8 MPH (7 knots; 3.6 m/s)
Visibility: 6 or more miles (10+ km)
Ceiling: at least 12,000 feet AGL
Clouds: scattered clouds at 1000 feet AGL
Weather: no significant weather observed at this time

METAR text: ENGM 180550Z 18007KT 9999 FEW008 SCT012 12/11 Q1001 NOSIG
Conditions at: ENGM (OSLO/GARDERMOEN , NO) observed 0550 UTC 18 August 2019
Temperature: 12.0°C (54°F)
Dewpoint: 11.0°C (52°F) [RH = 94%]
Pressure (altimeter): 29.56 inches Hg (1001.0 mb)
Winds: from the S (180 degrees) at 8 MPH (7 knots; 3.6 m/s)
Visibility: 6 or more miles (10+ km)
Ceiling: at least 12,000 feet AGL
Clouds: few clouds at 800 feet AGL
scattered clouds at 1200 feet AGL
Weather: no significant weather observed at this time

METAR text: ENGM 180520Z 19009KT 9999 SCT019 12/11 Q1001 NOSIG
Conditions at: ENGM (OSLO/GARDERMOEN , NO) observed 0520 UTC 18 August 2019
Temperature: 12.0°C (54°F)
Dewpoint: 11.0°C (52°F) [RH = 94%]
Pressure (altimeter): 29.56 inches Hg (1001.0 mb)
Winds: from the S (190 degrees) at 10 MPH (9 knots; 4.6 m/s)
Visibility: 6 or more miles (10+ km)
Ceiling: at least 12,000 feet AGL
Clouds: scattered clouds at 1900 feet AGL
Weather: no significant weather observed at this time

METAR text: ENGM 180450Z 20009KT 9999 FEW026 SCT034 12/11 Q1001 NOSIG
Conditions at: ENGM (OSLO/GARDERMOEN , NO) observed 0450 UTC 18 August 2019
Temperature: 12.0°C (54°F)
Dewpoint: 11.0°C (52°F) [RH = 94%]
Pressure (altimeter): 29.56 inches Hg (1001.0 mb)
Winds: from the SSW (200 degrees) at 10 MPH (9 knots; 4.6 m/s)
Visibility: 6 or more miles (10+ km)
Ceiling: at least 12,000 feet AGL
Clouds: few clouds at 2600 feet AGL
scattered clouds at 3400 feet AGL
Weather: no significant weather observed at this time

METAR text: ENGM 180420Z 19010KT 9999 SCT013 12/11 Q1000 NOSIG
Conditions at: ENGM (OSLO/GARDERMOEN , NO) observed 0420 UTC 18 August 2019
Temperature: 12.0°C (54°F)
Dewpoint: 11.0°C (52°F) [RH = 94%]
Pressure (altimeter): 29.53 inches Hg (1000.0 mb)
Winds: from the S (190 degrees) at 12 MPH (10 knots; 5.1 m/s)
Visibility: 6 or more miles (10+ km)
Ceiling: at least 12,000 feet AGL
Clouds: scattered clouds at 1300 feet AGL
Weather: no significant weather observed at this time

METAR text: ENGM 180350Z 18009KT 9999 FEW011 SCT013 BKN018 12/11 Q1000 NOSIG
Conditions at: ENGM (OSLO/GARDERMOEN , NO) observed 0350 UTC 18 August 2019
Temperature: 12.0°C (54°F)
Dewpoint: 11.0°C (52°F) [RH = 94%]
Pressure (altimeter): 29.53 inches Hg (1000.0 mb)
Winds: from the S (180 degrees) at 10 MPH (9 knots; 4.6 m/s)
Visibility: 6 or more miles (10+ km)
Ceiling: 1800 feet AGL
Clouds: few clouds at 1100 feet AGL
scattered clouds at 1300 feet AGL
broken clouds at 1800 feet AGL
Weather: no significant weather observed at this time

METAR text: ENGM 180320Z 19012KT 9999 FEW012 SCT018 12/11 Q1000
Conditions at: ENGM (OSLO/GARDERMOEN , NO) observed 0320 UTC 18 August 2019
Temperature: 12.0°C (54°F)
Dewpoint: 11.0°C (52°F) [RH = 94%]
Pressure (altimeter): 29.53 inches Hg (1000.0 mb)
Winds: from the S (190 degrees) at 14 MPH (12 knots; 6.2 m/s)
Visibility: 6 or more miles (10+ km)
Ceiling: at least 12,000 feet AGL
Clouds: few clouds at 1200 feet AGL
scattered clouds at 1800 feet AGL
Weather: no significant weather observed at this time

METAR text: ENGM 180250Z 19010KT 9999 FEW016 SCT022 13/12 Q1000
Conditions at: ENGM (OSLO/GARDERMOEN , NO) observed 0250 UTC 18 August 2019
Temperature: 13.0°C (55°F)
Dewpoint: 12.0°C (54°F) [RH = 94%]
Pressure (altimeter): 29.53 inches Hg (1000.0 mb)
Winds: from the S (190 degrees) at 12 MPH (10 knots; 5.1 m/s)
Visibility: 6 or more miles (10+ km)
Ceiling: at least 12,000 feet AGL
Clouds: few clouds at 1600 feet AGL
scattered clouds at 2200 feet AGL
Weather: no significant weather observed at this time

METAR text: ENGM 180220Z 19011KT 9999 FEW011 SCT017 BKN022 13/12 Q1000
Conditions at: ENGM (OSLO/GARDERMOEN , NO) observed 0220 UTC 18 August 2019
Temperature: 13.0°C (55°F)
Dewpoint: 12.0°C (54°F) [RH = 94%]
Pressure (altimeter): 29.53 inches Hg (1000.0 mb)
Winds: from the S (190 degrees) at 13 MPH (11 knots; 5.7 m/s)
Visibility: 6 or more miles (10+ km)
Ceiling: 2200 feet AGL
Clouds: few clouds at 1100 feet AGL
scattered clouds at 1700 feet AGL
broken clouds at 2200 feet AGL
Weather: no significant weather observed at this time

METAR text: ENGM 180150Z 18011KT 9999 FEW011 SCT018 BKN022 14/12 Q1000
Conditions at: ENGM (OSLO/GARDERMOEN , NO) observed 0150 UTC 18 August 2019
Temperature: 14.0°C (57°F)
Dewpoint: 12.0°C (54°F) [RH = 88%]
Pressure (altimeter): 29.53 inches Hg (1000.0 mb)
Winds: from the S (180 degrees) at 13 MPH (11 knots; 5.7 m/s)
Visibility: 6 or more miles (10+ km)
Ceiling: 2200 feet AGL
Clouds: few clouds at 1100 feet AGL
scattered clouds at 1800 feet AGL
broken clouds at 2200 feet AGL
Weather: no significant weather observed at this time

METAR text: ENGM 180120Z 19014KT 9999 FEW010 SCT021 BKN025 13/12 Q1000
Conditions at: ENGM (OSLO/GARDERMOEN , NO) observed 0120 UTC 18 August 2019
Temperature: 13.0°C (55°F)
Dewpoint: 12.0°C (54°F) [RH = 94%]
Pressure (altimeter): 29.53 inches Hg (1000.0 mb)
Winds: from the S (190 degrees) at 16 MPH (14 knots; 7.2 m/s)
Visibility: 6 or more miles (10+ km)
Ceiling: 2500 feet AGL
Clouds: few clouds at 1000 feet AGL
scattered clouds at 2100 feet AGL
broken clouds at 2500 feet AGL
Weather: no significant weather observed at this time

METAR text: ENGM 180050Z 17014KT 9999 SCT012 SCT017 BKN020 14/12 Q1000
Conditions at: ENGM (OSLO/GARDERMOEN , NO) observed 0050 UTC 18 August 2019
Temperature: 14.0°C (57°F)
Dewpoint: 12.0°C (54°F) [RH = 88%]
Pressure (altimeter): 29.53 inches Hg (1000.0 mb)
Winds: from the S (170 degrees) at 16 MPH (14 knots; 7.2 m/s)
Visibility: 6 or more miles (10+ km)
Ceiling: 2000 feet AGL
Clouds: scattered clouds at 1200 feet AGL
scattered clouds at 1700 feet AGL
broken clouds at 2000 feet AGL
Weather: no significant weather observed at this time

METAR text: ENGM 180020Z 18017KT 9999 FEW013 SCT023 BKN028 14/12 Q1000
Conditions at: ENGM (OSLO/GARDERMOEN , NO) observed 0020 UTC 18 August 2019
Temperature: 14.0°C (57°F)
Dewpoint: 12.0°C (54°F) [RH = 88%]
Pressure (altimeter): 29.53 inches Hg (1000.0 mb)
Winds: from the S (180 degrees) at 20 MPH (17 knots; 8.7 m/s)
Visibility: 6 or more miles (10+ km)
Ceiling: 2800 feet AGL
Clouds: few clouds at 1300 feet AGL
scattered clouds at 2300 feet AGL
broken clouds at 2800 feet AGL
Weather: no significant weather observed at this time

METAR text: ENGM 172350Z 18014KT 9999 SCT013 BKN084 14/13 Q0999
Conditions at: ENGM (OSLO/GARDERMOEN , NO) observed 2350 UTC 17 August 2019
Temperature: 14.0°C (57°F)
Dewpoint: 13.0°C (55°F) [RH = 94%]
Pressure (altimeter): 29.50 inches Hg (999.0 mb)
Winds: from the S (180 degrees) at 16 MPH (14 knots; 7.2 m/s)
Visibility: 6 or more miles (10+ km)
Ceiling: 8400 feet AGL
Clouds: scattered clouds at 1300 feet AGL
broken clouds at 8400 feet AGL
Weather: no significant weather observed at this time

METAR text: ENGM 172320Z 18012KT 9999 -RA FEW014 BKN060 14/13 Q1000
Conditions at: ENGM (OSLO/GARDERMOEN , NO) observed 2320 UTC 17 August 2019
Temperature: 14.0°C (57°F)
Dewpoint: 13.0°C (55°F) [RH = 94%]
Pressure (altimeter): 29.53 inches Hg (1000.0 mb)
Winds: from the S (180 degrees) at 14 MPH (12 knots; 6.2 m/s)
Visibility: 6 or more miles (10+ km)
Ceiling: 6000 feet AGL
Clouds: few clouds at 1400 feet AGL
broken clouds at 6000 feet AGL
Weather: -RA  (light rain)

METAR text: ENGM 172250Z 18010KT 9999 -RA FEW007 BKN060 14/13 Q0999
Conditions at: ENGM (OSLO/GARDERMOEN , NO) observed 2250 UTC 17 August 2019
Temperature: 14.0°C (57°F)
Dewpoint: 13.0°C (55°F) [RH = 94%]
Pressure (altimeter): 29.50 inches Hg (999.0 mb)
Winds: from the S (180 degrees) at 12 MPH (10 knots; 5.1 m/s)
Visibility: 6 or more miles (10+ km)
Ceiling: 6000 feet AGL
Clouds: few clouds at 700 feet AGL
broken clouds at 6000 feet AGL
Weather: -RA  (light rain)

METAR text: ENGM 172220Z 18011KT 9999 BKN009 14/13 Q0999
Conditions at: ENGM (OSLO/GARDERMOEN , NO) observed 2220 UTC 17 August 2019
Temperature: 14.0°C (57°F)
Dewpoint: 13.0°C (55°F) [RH = 94%]
Pressure (altimeter): 29.50 inches Hg (999.0 mb)
Winds: from the S (180 degrees) at 13 MPH (11 knots; 5.7 m/s)
Visibility: 6 or more miles (10+ km)
Ceiling: 900 feet AGL
Clouds: broken clouds at 900 feet AGL
Weather: no significant weather observed at this time

METAR text: ENGM 172150Z 17011KT 9999 BKN013 14/13 Q0999
Conditions at: ENGM (OSLO/GARDERMOEN , NO) observed 2150 UTC 17 August 2019
Temperature: 14.0°C (57°F)
Dewpoint: 13.0°C (55°F) [RH = 94%]
Pressure (altimeter): 29.50 inches Hg (999.0 mb)
Winds: from the S (170 degrees) at 13 MPH (11 knots; 5.7 m/s)
Visibility: 6 or more miles (10+ km)
Ceiling: 1300 feet AGL
Clouds: broken clouds at 1300 feet AGL
Weather: no significant weather observed at this time

METAR text: ENGM 172120Z 17011KT 120V190 9999 BKN013 14/13 Q0999
Conditions at: ENGM (OSLO/GARDERMOEN , NO) observed 2120 UTC 17 August 2019
Temperature: 14.0°C (57°F)
Dewpoint: 13.0°C (55°F) [RH = 94%]
Pressure (altimeter): 29.50 inches Hg (999.0 mb)
Winds: from the S (170 degrees) at 13 MPH (11 knots; 5.7 m/s)
Visibility: 6 or more miles (10+ km)
Ceiling: 1300 feet AGL
Clouds: broken clouds at 1300 feet AGL
Weather: no significant weather observed at this time

METAR text: ENGM 172050Z 17011KT 9999 FEW017 BKN020 14/13 Q0999 TEMPO BKN014
Conditions at: ENGM (OSLO/GARDERMOEN , NO) observed 2050 UTC 17 August 2019
Temperature: 14.0°C (57°F)
Dewpoint: 13.0°C (55°F) [RH = 94%]
Pressure (altimeter): 29.50 inches Hg (999.0 mb)
Winds: from the S (170 degrees) at 13 MPH (11 knots; 5.7 m/s)
Visibility: 6 or more miles (10+ km)
Ceiling: 2000 feet AGL
Clouds: few clouds at 1700 feet AGL
broken clouds at 2000 feet AGL
Weather: no significant weather observed at this time

METAR text: ENGM 172020Z 16009KT 9999 FEW009 BKN011 15/13 Q0999 NOSIG
Conditions at: ENGM (OSLO/GARDERMOEN , NO) observed 2020 UTC 17 August 2019
Temperature: 15.0°C (59°F)
Dewpoint: 13.0°C (55°F) [RH = 88%]
Pressure (altimeter): 29.50 inches Hg (999.0 mb)
Winds: from the SSE (160 degrees) at 10 MPH (9 knots; 4.6 m/s)
Visibility: 6 or more miles (10+ km)
Ceiling: 1100 feet AGL
Clouds: few clouds at 900 feet AGL
broken clouds at 1100 feet AGL
Weather: no significant weather observed at this time

METAR text: ENGM 171950Z 17010KT 9999 SCT009 BKN014 15/14 Q0999 NOSIG
Conditions at: ENGM (OSLO/GARDERMOEN , NO) observed 1950 UTC 17 August 2019
Temperature: 15.0°C (59°F)
Dewpoint: 14.0°C (57°F) [RH = 94%]
Pressure (altimeter): 29.50 inches Hg (999.0 mb)
Winds: from the S (170 degrees) at 12 MPH (10 knots; 5.1 m/s)
Visibility: 6 or more miles (10+ km)
Ceiling: 1400 feet AGL
Clouds: scattered clouds at 900 feet AGL
broken clouds at 1400 feet AGL
Weather: no significant weather observed at this time

METAR text: ENGM 171920Z 18010KT 9999 FEW008 SCT010 BKN029 15/13 Q0998 NOSIG
Conditions at: ENGM (OSLO/GARDERMOEN , NO) observed 1920 UTC 17 August 2019
Temperature: 15.0°C (59°F)
Dewpoint: 13.0°C (55°F) [RH = 88%]
Pressure (altimeter): 29.47 inches Hg (998.0 mb)
Winds: from the S (180 degrees) at 12 MPH (10 knots; 5.1 m/s)
Visibility: 6 or more miles (10+ km)
Ceiling: 2900 feet AGL
Clouds: few clouds at 800 feet AGL
scattered clouds at 1000 feet AGL
broken clouds at 2900 feet AGL
Weather: no significant weather observed at this time

METAR text: ENGM 171850Z 18010KT 9999 SCT006 BKN013 15/14 Q0999 NOSIG
Conditions at: ENGM (OSLO/GARDERMOEN , NO) observed 1850 UTC 17 August 2019
Temperature: 15.0°C (59°F)
Dewpoint: 14.0°C (57°F) [RH = 94%]
Pressure (altimeter): 29.50 inches Hg (999.0 mb)
Winds: from the S (180 degrees) at 12 MPH (10 knots; 5.1 m/s)
Visibility: 6 or more miles (10+ km)
Ceiling: 1300 feet AGL
Clouds: scattered clouds at 600 feet AGL
broken clouds at 1300 feet AGL
Weather: no significant weather observed at this time

METAR text: ENGM 171820Z 17012KT 9999 BKN004 15/14 Q0998 TEMPO 4000 BR BKN006
Conditions at: ENGM (OSLO/GARDERMOEN , NO) observed 1820 UTC 17 August 2019
Temperature: 15.0°C (59°F)
Dewpoint: 14.0°C (57°F) [RH = 94%]
Pressure (altimeter): 29.47 inches Hg (998.0 mb)
Winds: from the S (170 degrees) at 14 MPH (12 knots; 6.2 m/s)
Visibility: 6 or more miles (10+ km)
Ceiling: 400 feet AGL
Clouds: broken clouds at 400 feet AGL
Weather: no significant weather observed at this time

METAR text: ENGM 171750Z 17010KT 140V200 7000 RA BKN004 15/14 Q0998 TEMPO 4000 -RA BR BKN006
Conditions at: ENGM (OSLO/GARDERMOEN , NO) observed 1750 UTC 17 August 2019
Temperature: 15.0°C (59°F)
Dewpoint: 14.0°C (57°F) [RH = 94%]
Pressure (altimeter): 29.47 inches Hg (998.0 mb)
Winds: from the S (170 degrees) at 12 MPH (10 knots; 5.1 m/s)
Visibility: 4 miles ( 7 km)
Ceiling: 400 feet AGL
Clouds: broken clouds at 400 feet AGL
Weather: RA  (moderate rain)

METAR text: ENGM 171720Z 16013KT 7000 RADZ BKN004 15/14 Q0998 TEMPO 4000 -RA BR BKN006
Conditions at: ENGM (OSLO/GARDERMOEN , NO) observed 1720 UTC 17 August 2019
Temperature: 15.0°C (59°F)
Dewpoint: 14.0°C (57°F) [RH = 94%]
Pressure (altimeter): 29.47 inches Hg (998.0 mb)
Winds: from the SSE (160 degrees) at 15 MPH (13 knots; 6.7 m/s)
Visibility: 4 miles ( 7 km)
Ceiling: 400 feet AGL
Clouds: broken clouds at 400 feet AGL
Weather: RA DZ  (moderate rain, moderate drizzle)

METAR text: ENGM 171650Z 15012KT 3900 RA SCT003 OVC005 15/14 Q0998 TEMPO 5000 -RA BR BKN004
Conditions at: ENGM (OSLO/GARDERMOEN , NO) observed 1650 UTC 17 August 2019
Temperature: 15.0°C (59°F)
Dewpoint: 14.0°C (57°F) [RH = 94%]
Pressure (altimeter): 29.47 inches Hg (998.0 mb)
Winds: from the SSE (150 degrees) at 14 MPH (12 knots; 6.2 m/s)
Visibility: 2.42 miles (3.89 km)
Ceiling: 500 feet AGL
Clouds: scattered clouds at 300 feet AGL
overcast cloud deck at 500 feet AGL
Weather: RA  (moderate rain)

METAR text: ENGM 171620Z 15012KT 5000 RA SCT003 OVC005 15/14 Q0998 TEMPO 4000 -RA BR BKN004
Conditions at: ENGM (OSLO/GARDERMOEN , NO) observed 1620 UTC 17 August 2019
Temperature: 15.0°C (59°F)
Dewpoint: 14.0°C (57°F) [RH = 94%]
Pressure (altimeter): 29.47 inches Hg (998.0 mb)
Winds: from the SSE (150 degrees) at 14 MPH (12 knots; 6.2 m/s)
Visibility: 3 miles ( 5 km)
Ceiling: 500 feet AGL
Clouds: scattered clouds at 300 feet AGL
overcast cloud deck at 500 feet AGL
Weather: RA  (moderate rain)

METAR text: ENGM 171550Z 15013KT 5000 RA SCT004 OVC010 15/14 Q0999 TEMPO 4000 -RA BR BKN004
Conditions at: ENGM (OSLO/GARDERMOEN , NO) observed 1550 UTC 17 August 2019
Temperature: 15.0°C (59°F)
Dewpoint: 14.0°C (57°F) [RH = 94%]
Pressure (altimeter): 29.50 inches Hg (999.0 mb)
Winds: from the SSE (150 degrees) at 15 MPH (13 knots; 6.7 m/s)
Visibility: 3 miles ( 5 km)
Ceiling: 1000 feet AGL
Clouds: scattered clouds at 400 feet AGL
overcast cloud deck at 1000 feet AGL
Weather: RA  (moderate rain)

Forecast for: AMD
Text: TAF AMD ENGM 1902/1924 18008KT 9999 FEW020TCU SCT040
Forecast period: 0200 UTC 19 August 2019 to 0000 UTC 20 August 2019
Forecast type: FROM: standard forecast or significant change
Winds: from the S (180 degrees) at 9 MPH (8 knots; 4.1 m/s)
Visibility: 6 or more miles 10+ km)
Ceiling: at least 12,000 feet AGL
Clouds: few clouds at 2000 feet AGL
scattered clouds at 4000 feet AGL
Weather: no significant weather forecast for this period
Text: PROB40 1902/1906 1200 BCFG BKN002
Forecast period: 0200 to 0600 UTC 19 August 2019
Forecast type: PROBABLE: 40 percent likelihood of the following during this time
Visibility: 0.75 miles (1.21 km)
Ceiling: 200 feet AGL
Clouds: broken clouds at 200 feet AGL
Weather: BCFG  (patches of fog)
Text: TEMPO 1906/1920 SHRA BKN012 FEW020CB
Forecast period: 0600 to 2000 UTC 19 August 2019
Forecast type: TEMPORARY: The following changes expected for less than half the time period
Visibility: missing
Ceiling: 1200 feet AGL
Clouds: broken clouds at 1200 feet AGL
few clouds at 2000 feet AGL
Weather: SHRA  (rain showers)
Text: PROB40
Forecast period: 0800 to 2000 UTC 19 August 2019
Forecast type: TEMPORARY: The following changes expected for less than half the time period
Visibility: 2.49 miles (4.01 km)
Ceiling: 800 feet AGL
Clouds: broken clouds at 800 feet AGL
scattered clouds at 1500 feet AGL
Weather: TSRA  (rain associated with thunderstorm(s))
Text: TEMPO 1908/1920 4000 TSRA BKN008 SCT015CB
Forecast period: 1100 to 1700 UTC 19 August 2019
Forecast type: TEMPORARY: The following changes expected for less than half the time period
Winds: from the S (180 degrees) at 17 MPH (15 knots; 7.7 m/s)
gusting to 29 MPH (25 knots; 12.9 m/s)
Visibility: missing
Ceiling: unknown
Clouds: missing
Weather: no significant weather forecast for this period